createdAt,value
2023-05-17T00:02:20.972Z,36.20
2023-05-17T00:04:49.175Z,34.35
2023-05-17T00:07:16.956Z,35.33
2023-05-17T00:09:44.934Z,34.63
2023-05-17T00:12:12.601Z,32.90
2023-05-17T00:14:40.714Z,41.40
2023-05-17T00:17:08.433Z,45.78
2023-05-17T00:19:36.416Z,49.90
2023-05-17T00:22:04.263Z,45.58
2023-05-17T00:24:32.341Z,35.95
2023-05-17T00:27:00.040Z,33.40
2023-05-17T00:29:27.978Z,24.67
2023-05-17T00:31:55.733Z,28.23
2023-05-17T00:34:24.079Z,29.30
2023-05-17T00:36:51.763Z,27.17
2023-05-17T00:39:19.747Z,24.13
2023-05-17T00:41:47.478Z,27.45
2023-05-17T00:44:15.519Z,25.63
2023-05-17T00:46:43.466Z,26.73
2023-05-17T00:49:11.526Z,24.27
2023-05-17T00:51:39.841Z,24.20
2023-05-17T00:54:08.015Z,24.05
2023-05-17T00:56:35.992Z,21.25
2023-05-17T00:59:06.688Z,22.20
2023-05-17T01:01:36.865Z,26.75
2023-05-17T01:04:05.437Z,26.13
2023-05-17T01:06:35.350Z,24.17
2023-05-17T01:09:07.472Z,22.15
2023-05-17T01:12:11.932Z,23.10
2023-05-17T01:14:54.923Z,21.38
2023-05-17T01:17:48.107Z,18.83
2023-05-17T01:20:29.673Z,18.38
2023-05-17T01:23:41.808Z,18.85
2023-05-17T01:26:19.224Z,17.15
2023-05-17T01:28:52.555Z,20.30
2023-05-17T01:31:21.849Z,18.40
2023-05-17T01:33:50.202Z,16.73
2023-05-17T01:36:18.236Z,16.30
2023-05-17T01:38:45.943Z,17.98
2023-05-17T01:41:38.304Z,16.88
2023-05-17T01:44:26.995Z,18.55
2023-05-17T01:47:21.131Z,18.55
2023-05-17T01:49:54.277Z,24.03
2023-05-17T01:52:37.792Z,24.10
2023-05-17T01:55:46.249Z,24.80
2023-05-17T01:58:14.876Z,21.50
2023-05-17T02:00:46.192Z,25.25
2023-05-17T02:03:21.365Z,22.45
2023-05-17T02:05:53.517Z,23.40
2023-05-17T02:08:21.476Z,20.40
2023-05-17T02:10:49.221Z,25.40
2023-05-17T02:13:17.145Z,24.80
2023-05-17T02:15:45.067Z,26.70
2023-05-17T02:18:13.216Z,26.38
2023-05-17T02:20:41.411Z,27.13
2023-05-17T02:23:09.794Z,27.35
2023-05-17T02:25:37.465Z,30.90
2023-05-17T02:28:06.922Z,23.60
2023-05-17T02:30:36.856Z,28.98
2023-05-17T02:33:04.905Z,28.25
2023-05-17T02:35:32.798Z,27.33
2023-05-17T02:38:01.160Z,28.63
2023-05-17T02:40:28.855Z,31.85
2023-05-17T02:42:56.871Z,28.08
2023-05-17T02:45:24.585Z,32.50
2023-05-17T02:47:52.588Z,30.15
2023-05-17T02:50:20.648Z,30.25
2023-05-17T02:52:48.675Z,34.83
2023-05-17T02:55:16.779Z,32.90
2023-05-17T02:57:45.248Z,33.50
2023-05-17T03:00:14.057Z,33.42
2023-05-17T03:02:42.266Z,37.25
2023-05-17T03:05:10.718Z,31.52
2023-05-17T03:07:43.348Z,35.20
2023-05-17T03:10:11.354Z,35.72
2023-05-17T03:12:44.001Z,32.97
2023-05-17T03:15:12.236Z,35.45
2023-05-17T03:17:40.300Z,33.78
2023-05-17T03:20:09.805Z,36.42
2023-05-17T03:22:37.853Z,37.75
2023-05-17T03:25:06.845Z,38.67
2023-05-17T03:27:35.250Z,39.08
2023-05-17T03:30:03.090Z,37.70
2023-05-17T03:32:33.030Z,36.35
2023-05-17T03:35:00.853Z,35.72
2023-05-17T03:37:29.667Z,34.83
2023-05-17T03:39:57.480Z,34.80
2023-05-17T03:42:25.709Z,31.00
2023-05-17T03:44:54.077Z,36.90
2023-05-17T03:47:24.832Z,33.83
2023-05-17T03:49:52.537Z,34.05
2023-05-17T03:52:21.220Z,32.05
2023-05-17T03:54:49.574Z,31.50
2023-05-17T03:57:18.346Z,30.85
2023-05-17T03:59:46.800Z,35.80
2023-05-17T04:02:16.851Z,31.90
2023-05-17T04:04:52.985Z,33.38
2023-05-17T04:07:22.065Z,28.48
2023-05-17T04:09:49.829Z,29.42
2023-05-17T04:12:17.898Z,31.77
2023-05-17T04:14:45.585Z,30.30
2023-05-17T04:17:16.795Z,29.83
2023-05-17T04:19:45.418Z,30.17
2023-05-17T04:22:13.703Z,29.45
2023-05-17T04:24:41.453Z,28.42
2023-05-17T04:27:09.902Z,27.65
2023-05-17T04:29:37.762Z,28.02
2023-05-17T04:32:06.190Z,26.60
2023-05-17T04:34:34.105Z,25.48
2023-05-17T04:37:04.267Z,27.42
2023-05-17T04:39:34.143Z,28.65
2023-05-17T04:42:02.364Z,26.48
2023-05-17T04:44:30.717Z,27.33
2023-05-17T04:46:58.992Z,26.23
2023-05-17T04:49:27.226Z,29.73
2023-05-17T04:51:59.229Z,28.02
2023-05-17T04:54:27.524Z,28.25
2023-05-17T04:56:55.989Z,26.42
2023-05-17T04:59:43.769Z,28.52
2023-05-17T05:02:12.436Z,28.17
2023-05-17T05:04:40.529Z,27.25
2023-05-17T05:07:09.998Z,27.27
2023-05-17T05:09:37.905Z,26.77
2023-05-17T05:12:07.246Z,27.88
2023-05-17T05:14:37.002Z,30.20
2023-05-17T05:17:05.778Z,25.45
2023-05-17T05:19:34.055Z,30.98
2023-05-17T05:22:02.759Z,27.35
2023-05-17T05:24:32.948Z,32.92
2023-05-17T05:27:01.360Z,29.42
2023-05-17T05:29:29.449Z,28.80
2023-05-17T05:31:57.604Z,32.78
2023-05-17T05:34:25.661Z,32.67
2023-05-17T05:36:53.834Z,30.48
2023-05-17T05:39:21.910Z,34.38
2023-05-17T05:41:49.880Z,32.47
2023-05-17T05:44:17.746Z,34.53
2023-05-17T05:46:46.053Z,33.83
2023-05-17T05:49:14.530Z,30.65
2023-05-17T05:51:42.555Z,32.00
2023-05-17T05:54:10.875Z,32.45
2023-05-17T05:56:39.846Z,31.13
2023-05-17T05:59:09.077Z,29.23
2023-05-17T06:01:38.136Z,26.73
2023-05-17T06:04:06.009Z,28.60
2023-05-17T06:06:34.115Z,28.77
2023-05-17T06:09:02.253Z,28.15
2023-05-17T06:11:30.357Z,26.80
2023-05-17T06:13:58.119Z,29.85
2023-05-17T06:16:26.115Z,30.48
2023-05-17T06:18:53.964Z,27.05
2023-05-17T06:21:21.985Z,27.35
2023-05-17T06:23:49.806Z,25.23
2023-05-17T06:26:17.779Z,23.15
2023-05-17T06:28:46.135Z,20.58
2023-05-17T06:31:14.194Z,20.70
2023-05-17T06:33:42.220Z,20.55
2023-05-17T06:36:10.516Z,21.45
2023-05-17T06:38:38.243Z,20.33
2023-05-17T06:41:06.568Z,18.10
2023-05-17T06:43:35.736Z,17.88
2023-05-17T06:46:05.729Z,18.42
2023-05-17T06:48:33.598Z,22.27
2023-05-17T06:51:02.569Z,19.33
2023-05-17T06:53:30.332Z,22.00
2023-05-17T06:55:58.319Z,18.17
2023-05-17T06:58:26.700Z,14.35
2023-05-17T07:00:54.685Z,15.32
2023-05-17T07:03:22.550Z,17.20
2023-05-17T07:05:50.629Z,17.00
2023-05-17T07:08:18.406Z,15.73
2023-05-17T07:10:46.447Z,14.73
2023-05-17T07:13:14.323Z,17.15
2023-05-17T07:15:42.493Z,16.58
2023-05-17T07:18:10.792Z,18.08
2023-05-17T07:20:38.945Z,16.30
2023-05-17T07:23:06.840Z,15.88
2023-05-17T07:25:41.131Z,18.77
2023-05-17T07:30:37.430Z,16.35
2023-05-17T07:33:05.351Z,12.07
2023-05-17T07:35:33.436Z,10.40
2023-05-17T07:38:01.291Z,11.73
2023-05-17T07:40:29.583Z,10.50
2023-05-17T07:42:57.309Z,11.20
2023-05-17T07:45:25.870Z,9.50
2023-05-17T07:47:53.718Z,9.48
2023-05-17T07:50:22.225Z,9.80
2023-05-17T07:52:50.017Z,8.18
2023-05-17T07:55:18.254Z,7.78
2023-05-17T07:57:47.515Z,7.90
2023-05-17T08:00:19.307Z,8.57
2023-05-17T08:02:47.250Z,7.35
2023-05-17T08:05:15.880Z,6.20
2023-05-17T08:07:43.673Z,6.03
2023-05-17T08:10:11.864Z,5.97
2023-05-17T08:12:39.743Z,7.25
2023-05-17T08:15:08.437Z,6.88
2023-05-17T08:17:36.556Z,9.77
2023-05-17T08:20:08.042Z,8.55
2023-05-17T08:22:39.793Z,7.68
2023-05-17T08:25:08.172Z,11.45
2023-05-17T08:27:36.151Z,7.82
2023-05-17T08:30:08.987Z,8.63
2023-05-17T08:32:39.255Z,7.53
2023-05-17T08:35:07.661Z,7.95
2023-05-17T08:37:35.322Z,7.93
2023-05-17T08:40:05.111Z,10.68
2023-05-17T08:42:33.750Z,8.10
2023-05-17T08:45:02.118Z,9.15
2023-05-17T08:47:32.282Z,8.93
2023-05-17T08:50:05.956Z,8.38
2023-05-17T08:52:36.055Z,9.85
2023-05-17T08:55:06.124Z,10.23
2023-05-17T08:57:38.732Z,9.65
2023-05-17T09:00:12.582Z,11.82
2023-05-17T09:02:42.173Z,10.90
2023-05-17T09:05:11.310Z,11.90
2023-05-17T09:07:39.199Z,9.88
2023-05-17T09:10:07.835Z,10.77
2023-05-17T09:12:35.561Z,10.10
2023-05-17T09:15:20.000Z,9.77
2023-05-17T09:17:55.287Z,11.07
2023-05-17T09:20:34.534Z,9.82
2023-05-17T09:23:13.329Z,10.38
2023-05-17T09:25:49.054Z,9.65
2023-05-17T09:28:22.463Z,11.20
2023-05-17T09:30:50.610Z,10.40
2023-05-17T09:33:22.858Z,11.02
2023-05-17T09:35:51.215Z,11.07
2023-05-17T09:38:19.072Z,8.63
2023-05-17T09:40:48.875Z,8.23
2023-05-17T09:43:23.040Z,8.27
2023-05-17T09:45:58.854Z,8.18
2023-05-17T09:48:30.329Z,7.60
2023-05-17T09:50:58.427Z,10.70
2023-05-17T09:53:30.003Z,9.15
2023-05-17T09:56:03.136Z,10.10
2023-05-17T09:58:33.897Z,9.35
2023-05-17T10:01:04.310Z,8.50
2023-05-17T10:03:34.438Z,8.93
2023-05-17T10:06:05.782Z,9.07
2023-05-17T10:08:34.837Z,11.35
2023-05-17T10:11:12.207Z,8.90
2023-05-17T10:14:06.843Z,7.90
2023-05-17T10:16:35.320Z,8.75
2023-05-17T10:19:03.896Z,8.95
2023-05-17T10:21:32.722Z,8.73
2023-05-17T10:24:03.075Z,9.80
2023-05-17T10:26:31.587Z,10.10
2023-05-17T10:29:02.166Z,10.07
2023-05-17T10:31:33.387Z,9.90
2023-05-17T10:34:06.551Z,12.55
2023-05-17T10:36:34.993Z,10.98
2023-05-17T10:39:03.080Z,11.60
2023-05-17T10:41:35.187Z,11.68
2023-05-17T10:44:04.626Z,13.68
2023-05-17T10:46:32.838Z,13.13
2023-05-17T10:49:01.893Z,13.48
2023-05-17T10:51:35.616Z,15.70
2023-05-17T10:54:19.129Z,17.90
2023-05-17T10:56:52.502Z,13.32
2023-05-17T10:59:28.217Z,16.43
2023-05-17T11:02:03.634Z,15.75
2023-05-17T11:04:39.351Z,16.80
2023-05-17T11:07:17.244Z,17.75
2023-05-17T11:09:53.501Z,15.05
2023-05-17T11:12:42.986Z,21.15
2023-05-17T11:15:12.230Z,17.98
2023-05-17T11:17:50.620Z,17.55
2023-05-17T11:20:27.950Z,15.80
2023-05-17T11:23:07.738Z,13.68
2023-05-17T11:25:36.921Z,18.13
2023-05-17T11:28:27.017Z,20.25
2023-05-17T11:31:01.516Z,16.40
2023-05-17T11:33:43.697Z,17.45
2023-05-17T11:36:23.166Z,16.92
2023-05-17T11:39:10.551Z,18.10
2023-05-17T11:41:43.128Z,17.73
2023-05-17T11:44:11.762Z,17.52
2023-05-17T11:46:41.264Z,18.38
2023-05-17T11:49:13.552Z,17.88
2023-05-17T11:54:14.301Z,17.00
2023-05-17T11:56:43.189Z,16.52
2023-05-17T11:59:11.923Z,13.55
2023-05-17T12:01:44.432Z,19.67
2023-05-17T12:04:14.157Z,16.23
2023-05-17T12:06:42.623Z,16.25
2023-05-17T12:09:11.064Z,18.40
2023-05-17T12:11:41.183Z,16.27
2023-05-17T12:14:09.459Z,16.77
2023-05-17T12:16:40.903Z,17.27
2023-05-17T12:19:19.702Z,16.45
2023-05-17T12:21:48.446Z,14.60
2023-05-17T12:24:17.029Z,18.83
2023-05-17T12:26:46.544Z,16.70
2023-05-17T12:29:19.338Z,19.20
2023-05-17T12:31:50.854Z,16.08
2023-05-17T12:34:19.393Z,17.58
2023-05-17T12:36:47.549Z,16.88
2023-05-17T12:39:18.122Z,18.70
2023-05-17T12:41:48.237Z,15.13
2023-05-17T12:44:16.916Z,16.08
2023-05-17T12:46:45.927Z,17.52
2023-05-17T12:49:13.989Z,22.38
2023-05-17T12:51:51.051Z,14.68
2023-05-17T12:54:24.706Z,18.02
2023-05-17T12:56:52.656Z,16.05
2023-05-17T12:59:21.300Z,16.20
2023-05-17T13:01:57.280Z,15.15
2023-05-17T13:04:33.420Z,16.85
2023-05-17T13:07:06.214Z,14.60
2023-05-17T13:09:45.073Z,17.13
2023-05-17T13:12:18.170Z,16.95
2023-05-17T13:14:51.823Z,23.52
2023-05-17T13:17:25.109Z,20.83
2023-05-17T13:19:54.361Z,18.15
2023-05-17T13:22:22.868Z,18.48
2023-05-17T13:24:51.345Z,20.67
2023-05-17T13:27:19.469Z,18.45
2023-05-17T13:29:47.585Z,23.25
2023-05-17T13:32:15.784Z,24.58
2023-05-17T13:34:43.833Z,23.48
2023-05-17T13:37:12.646Z,18.48
2023-05-17T13:39:42.218Z,16.85
2023-05-17T13:42:11.340Z,19.15
2023-05-17T13:44:39.509Z,14.35
2023-05-17T13:47:07.674Z,28.90
2023-05-17T13:49:36.259Z,16.15
2023-05-17T13:52:04.346Z,17.20
2023-05-17T13:54:32.452Z,30.38
2023-05-17T13:57:00.622Z,19.45
2023-05-17T13:59:28.641Z,17.05
2023-05-17T14:01:57.785Z,14.65
2023-05-17T14:04:26.171Z,17.00
2023-05-17T14:06:55.151Z,18.00
2023-05-17T14:09:23.364Z,14.23
2023-05-17T14:11:51.503Z,17.90
2023-05-17T14:14:19.461Z,15.82
2023-05-17T14:16:47.134Z,18.55
2023-05-17T14:19:15.277Z,16.23
2023-05-17T14:21:43.095Z,12.52
2023-05-17T14:24:11.036Z,15.88
2023-05-17T14:26:39.052Z,15.93
2023-05-17T14:29:07.698Z,15.45
2023-05-17T14:31:35.589Z,17.17
2023-05-17T14:34:04.028Z,14.25
2023-05-17T14:36:34.104Z,12.75
2023-05-17T14:39:02.602Z,13.02
2023-05-17T14:41:30.328Z,12.07
2023-05-17T14:43:58.346Z,14.75
2023-05-17T14:46:26.043Z,20.02
2023-05-17T14:48:56.347Z,16.70
2023-05-17T14:51:25.121Z,18.10
2023-05-17T14:53:54.322Z,13.38
2023-05-17T14:56:22.634Z,15.57
2023-05-17T14:58:51.211Z,19.98
2023-05-17T15:01:19.319Z,16.83
2023-05-17T15:03:47.444Z,12.73
2023-05-17T15:06:15.436Z,17.75
2023-05-17T15:08:43.444Z,14.23
2023-05-17T15:11:11.173Z,15.30
2023-05-17T15:13:39.158Z,14.57
2023-05-17T15:16:08.234Z,16.90
2023-05-17T15:18:36.699Z,18.88
2023-05-17T15:21:04.600Z,21.45
2023-05-17T15:23:32.679Z,17.50
2023-05-17T15:26:00.604Z,15.52
2023-05-17T15:28:28.741Z,17.02
2023-05-17T15:31:06.298Z,20.10
2023-05-17T15:33:34.404Z,17.92
2023-05-17T15:36:02.106Z,18.17
2023-05-17T15:38:30.092Z,19.33
2023-05-17T15:41:04.017Z,16.25
2023-05-17T15:43:34.345Z,21.73
2023-05-17T15:46:02.202Z,22.00
2023-05-17T15:48:30.320Z,22.50
2023-05-17T15:50:58.648Z,20.27
2023-05-17T15:53:28.022Z,22.33
2023-05-17T15:55:56.212Z,27.80
2023-05-17T15:58:28.008Z,21.55
2023-05-17T16:00:55.954Z,17.83
2023-05-17T16:03:23.910Z,20.40
2023-05-17T16:05:51.828Z,18.63
2023-05-17T16:08:20.453Z,23.58
2023-05-17T16:10:48.190Z,17.70
2023-05-17T16:13:16.334Z,20.42
2023-05-17T16:15:44.540Z,22.30
2023-05-17T16:18:15.049Z,18.95
2023-05-17T16:20:43.863Z,17.73
2023-05-17T16:23:12.721Z,15.90
2023-05-17T16:25:41.605Z,15.82
2023-05-17T16:28:09.698Z,16.98
2023-05-17T16:30:38.134Z,17.80
2023-05-17T16:33:08.360Z,18.90
2023-05-17T16:35:36.519Z,20.85
2023-05-17T16:38:04.671Z,22.05
2023-05-17T16:40:33.029Z,19.40
2023-05-17T16:43:01.312Z,18.98
2023-05-17T16:45:29.195Z,19.08
2023-05-17T16:47:57.354Z,21.80
2023-05-17T16:50:25.420Z,23.98
2023-05-17T16:52:53.468Z,21.02
2023-05-17T16:55:21.216Z,22.42
2023-05-17T16:57:49.214Z,20.70
2023-05-17T17:00:17.689Z,18.88
2023-05-17T17:02:45.758Z,23.65
2023-05-17T17:05:13.668Z,19.83
2023-05-17T17:07:42.656Z,23.55
2023-05-17T17:10:11.896Z,21.25
2023-05-17T17:12:40.050Z,19.98
2023-05-17T17:15:09.385Z,17.08
2023-05-17T17:17:37.628Z,21.42
2023-05-17T17:20:06.613Z,21.05
2023-05-17T17:22:34.830Z,20.42
2023-05-17T17:25:02.716Z,20.83
2023-05-17T17:27:30.763Z,17.92
2023-05-17T17:29:58.465Z,21.13
2023-05-17T17:32:26.485Z,22.38
2023-05-17T17:34:54.256Z,24.20
2023-05-17T17:37:22.406Z,15.77
2023-05-17T17:39:50.202Z,19.10
2023-05-17T17:42:18.216Z,24.52
2023-05-17T17:44:46.084Z,22.50
2023-05-17T17:47:14.327Z,26.13
2023-05-17T17:49:42.543Z,26.63
2023-05-17T17:52:10.573Z,22.30
2023-05-17T17:54:38.314Z,24.40
2023-05-17T17:57:06.559Z,25.92
2023-05-17T17:59:34.507Z,24.65
2023-05-17T18:02:02.580Z,31.88
2023-05-17T18:04:30.401Z,25.70
2023-05-17T18:06:58.477Z,26.10
2023-05-17T18:09:26.216Z,28.33
2023-05-17T18:11:54.247Z,26.77
2023-05-17T18:14:22.094Z,29.35
2023-05-17T18:16:50.113Z,31.77
2023-05-17T18:19:18.012Z,25.92
2023-05-17T18:21:46.305Z,30.88
2023-05-17T18:24:14.084Z,32.25
2023-05-17T18:26:42.109Z,32.65
2023-05-17T18:29:09.787Z,41.03
2023-05-17T18:31:38.090Z,32.15
2023-05-17T18:34:06.113Z,32.60
2023-05-17T18:36:34.311Z,34.13
2023-05-17T18:39:02.078Z,35.38
2023-05-17T18:41:30.076Z,41.42
2023-05-17T18:44:01.890Z,36.15
2023-05-17T18:46:30.570Z,38.53
2023-05-17T18:48:58.406Z,35.30
2023-05-17T18:51:26.381Z,42.53
2023-05-17T18:53:55.135Z,33.97
2023-05-17T18:56:25.110Z,35.00
2023-05-17T18:58:53.153Z,30.10
2023-05-17T19:01:21.605Z,30.20
2023-05-17T19:03:56.211Z,36.13
2023-05-17T19:06:25.292Z,27.67
2023-05-17T19:08:53.380Z,32.85
2023-05-17T19:11:22.719Z,37.95
2023-05-17T19:13:50.561Z,34.00
2023-05-17T19:16:18.722Z,34.15
2023-05-17T19:18:46.512Z,31.33
2023-05-17T19:21:14.748Z,32.08
2023-05-17T19:23:42.755Z,32.08
2023-05-17T19:26:10.852Z,37.20
2023-05-17T19:28:40.418Z,34.97
2023-05-17T19:31:08.714Z,39.50
2023-05-17T19:33:37.765Z,38.78
2023-05-17T19:36:06.109Z,40.38
2023-05-17T19:38:34.116Z,35.70
2023-05-17T19:41:02.429Z,39.50
2023-05-17T19:43:30.202Z,38.70
2023-05-17T19:45:58.244Z,39.22
2023-05-17T19:48:26.863Z,34.28
2023-05-17T19:50:56.753Z,44.47
2023-05-17T19:53:24.778Z,40.28
2023-05-17T19:55:54.005Z,37.55
2023-05-17T19:58:21.766Z,34.70
2023-05-17T20:00:49.806Z,37.53
2023-05-17T20:03:17.578Z,35.70
2023-05-17T20:05:45.927Z,30.55
2023-05-17T20:08:15.096Z,34.17
2023-05-17T20:10:43.196Z,37.00
2023-05-17T20:13:11.066Z,34.38
2023-05-17T20:15:39.103Z,33.25
2023-05-17T20:18:09.204Z,29.02
2023-05-17T20:20:37.477Z,27.52
2023-05-17T20:23:05.293Z,35.55
2023-05-17T20:25:33.440Z,28.17
2023-05-17T20:28:01.339Z,26.98
2023-05-17T20:30:29.818Z,30.67
2023-05-17T20:32:57.804Z,30.77
2023-05-17T20:35:26.042Z,28.80
2023-05-17T20:37:53.745Z,27.65
2023-05-17T20:40:21.716Z,31.35
2023-05-17T20:42:50.166Z,27.95
2023-05-17T20:45:18.160Z,29.98
2023-05-17T20:47:46.086Z,23.58
2023-05-17T20:50:15.449Z,24.25
2023-05-17T20:52:43.265Z,22.67
2023-05-17T20:55:11.545Z,26.48
2023-05-17T20:57:39.350Z,21.63
2023-05-17T21:00:11.525Z,19.40
2023-05-17T21:02:39.701Z,23.20
2023-05-17T21:05:09.251Z,25.73
2023-05-17T21:07:39.322Z,24.35
2023-05-17T21:10:08.860Z,22.45
2023-05-17T21:12:36.557Z,21.85
2023-05-17T21:15:16.369Z,21.77
2023-05-17T21:17:52.751Z,20.10
2023-05-17T21:20:22.272Z,20.10
2023-05-17T21:22:52.235Z,19.60
2023-05-17T21:25:20.656Z,23.67
2023-05-17T21:27:48.539Z,15.98
2023-05-17T21:30:16.590Z,26.30
2023-05-17T21:32:44.431Z,22.17
2023-05-17T21:35:12.829Z,23.67
2023-05-17T21:37:41.921Z,22.90
2023-05-17T21:40:10.629Z,20.02
2023-05-17T21:42:38.680Z,21.38
2023-05-17T21:45:07.356Z,21.92
2023-05-17T21:47:38.021Z,20.88
2023-05-17T21:50:06.420Z,24.88
2023-05-17T21:52:34.501Z,21.88
2023-05-17T21:55:02.573Z,20.98
2023-05-17T21:57:30.285Z,17.38
2023-05-17T21:59:58.217Z,20.45
2023-05-17T22:02:26.384Z,21.02
2023-05-17T22:04:54.763Z,19.23
2023-05-17T22:07:22.479Z,15.95
2023-05-17T22:09:50.523Z,16.48
2023-05-17T22:12:25.406Z,21.10
2023-05-17T22:14:56.074Z,18.85
2023-05-17T22:17:39.225Z,16.50
2023-05-17T22:20:18.082Z,20.55
2023-05-17T22:22:45.796Z,16.95
2023-05-17T22:25:15.067Z,17.02
2023-05-17T22:27:43.676Z,15.10
2023-05-17T22:30:11.914Z,15.50
2023-05-17T22:32:40.387Z,17.67
2023-05-17T22:35:08.637Z,13.30
2023-05-17T22:37:37.641Z,17.65
2023-05-17T22:40:06.626Z,16.85
2023-05-17T22:42:34.461Z,17.65
2023-05-17T22:45:02.804Z,15.07
2023-05-17T22:47:30.616Z,18.35
2023-05-17T22:50:00.757Z,14.98
2023-05-17T22:52:28.562Z,16.42
2023-05-17T22:54:56.532Z,18.00
2023-05-17T22:57:24.333Z,16.10
2023-05-17T22:59:52.261Z,19.02
2023-05-17T23:02:19.943Z,15.35
2023-05-17T23:04:48.029Z,11.48
2023-05-17T23:07:16.429Z,17.17
2023-05-17T23:09:44.564Z,15.55
2023-05-17T23:12:14.236Z,14.63
2023-05-17T23:14:42.577Z,8.90
2023-05-17T23:17:10.439Z,15.77
2023-05-17T23:19:40.692Z,13.35
2023-05-17T23:22:08.516Z,13.70
2023-05-17T23:24:38.977Z,13.52
2023-05-17T23:27:10.403Z,13.07
2023-05-17T23:29:41.459Z,12.27
2023-05-17T23:32:09.320Z,14.10
2023-05-17T23:34:37.312Z,14.88
2023-05-17T23:37:05.080Z,17.63
2023-05-17T23:39:33.024Z,17.10
2023-05-17T23:42:00.720Z,17.23
2023-05-17T23:44:28.677Z,11.25
2023-05-17T23:46:56.486Z,13.15
2023-05-17T23:49:24.428Z,15.18
2023-05-17T23:51:52.169Z,13.05
2023-05-17T23:54:20.260Z,14.98
2023-05-17T23:56:48.099Z,15.55
2023-05-17T23:59:16.420Z,13.55
